Whiskey Flats, Nevada
Current Conditions -  °F | °C
As of 3:52 PM on Wednesday 26 Nov 2014 (Local Time) from KBAN Reporting Station
Clear Clear  
Wind Chill: 61°   Ceiling: Unl
Heat Index: 61°   Visibility: NA
Dew Point: 21°   Wind: 7mph
Humidity: 21%   Direction: 260°W
Pressure: 30.42"   Gusts: NA
Location:  38.6331°N, 118.656°W
Report Text: KBAN 262352Z AUTO 26006KT CLR 16/M06 A3042 RMK AO2 SLP282 T01611061 10194 20072 55002 $
Loading
Personal Weather Stations






























Interactive Weather Map New forecast layout! Learn more

10-Day Weather Forecast

Advertisements
Track Severe Weather on mobile